Terminal Aerodrome Forecast
Issued by NWS Goodland, KS

Home | Current Version | Previous Version | Text Only | Print | Product List | Glossary On
Versions: 1 2 3 4 5 6 7 8 9 10 11 12 13 14 15 16 17 18 19
820
FTUS43 KGLD 290120 AAA
TAFGLD
TAF AMD
KGLD 290120Z 2901/2924 09015G23KT 4SM -DZ BR BKN008
     FM290500 05012KT 4SM -SHRA BR OVC003
     FM291100 02016G23KT 3SM -SHRA BR OVC003
     FM291900 01021G30KT 5SM -RA BR SCT007 BKN020
      TEMPO 2919/2923 BKN007=

USA.gov is the U.S. government's official web portal to all federal, state and local government web resources and services.